Time;durP1;ratioP1;P1;durP2;ratioP2;P2;SDS_P1;SDS_P2;PMS_P1;PMS_P2;Temp;Humidity;BMP_temperature;BMP_pressure;BME280_temperature;BME280_humidity;BME280_pressure;Samples;Min_cycle;Max_cycle;Signal;HPM_P1;HPM_P2
2021/07/22 00:02:06;;;;;;;11.67;7.50;;;19.10;77.40;;;;;;4987730;28;20189;-72
2021/07/22 00:04:32;;;;;;;11.70;7.23;;;19.10;76.80;;;;;;4984222;28;20186;-73
2021/07/22 00:06:58;;;;;;;10.80;6.70;;;19.10;76.40;;;;;;4986845;28;20220;-74
2021/07/22 00:09:24;;;;;;;12.13;8.07;;;19.10;76.20;;;;;;4985942;28;20193;-74
2021/07/22 00:11:49;;;;;;;13.13;6.77;;;19.10;76.50;;;;;;4988738;28;20182;-74
2021/07/22 00:14:15;;;;;;;11.33;7.20;;;19.10;76.20;;;;;;4985284;28;20199;-74
2021/07/22 00:16:41;;;;;;;13.43;7.47;;;19.10;76.10;;;;;;4982981;28;20211;-72
2021/07/22 00:19:07;;;;;;;12.03;7.30;;;19.10;75.90;;;;;;4985071;28;20196;-73
2021/07/22 00:21:32;;;;;;;12.97;6.73;;;19.10;75.80;;;;;;4986976;28;20564;-74
2021/07/22 00:23:59;;;;;;;15.00;7.17;;;19.10;75.90;;;;;;4987936;28;20244;-72
2021/07/22 00:26:25;;;;;;;16.90;7.90;;;19.00;76.10;;;;;;4985101;28;20212;-74
2021/07/22 00:28:51;;;;;;;11.30;7.37;;;19.00;75.90;;;;;;4989026;28;20506;-72
2021/07/22 00:31:16;;;;;;;12.27;7.83;;;19.00;75.90;;;;;;4982479;28;20480;-74
2021/07/22 00:33:42;;;;;;;14.20;6.93;;;18.90;76.20;;;;;;4986936;28;20266;-74
2021/07/22 00:36:09;;;;;;;9.70;7.30;;;18.90;76.80;;;;;;4980394;28;20226;-73
2021/07/22 00:38:35;;;;;;;13.47;8.20;;;18.90;77.00;;;;;;4986612;28;20678;-73
2021/07/22 00:41:01;;;;;;;11.90;7.07;;;18.90;77.40;;;;;;4985902;28;20431;-73
2021/07/22 00:43:27;;;;;;;11.23;7.10;;;18.90;77.30;;;;;;4984310;28;20436;-71
2021/07/22 00:45:52;;;;;;;13.27;7.80;;;18.80;77.30;;;;;;4983988;28;20694;-73
2021/07/22 00:48:18;;;;;;;18.23;8.33;;;18.80;77.60;;;;;;4983410;28;20215;-73
2021/07/22 00:50:44;;;;;;;12.60;7.30;;;18.80;77.40;;;;;;4982949;28;20212;-72
2021/07/22 00:53:09;;;;;;;17.30;8.03;;;18.70;77.80;;;;;;4989315;28;20216;-73
2021/07/22 00:55:35;;;;;;;12.50;7.57;;;18.70;78.60;;;;;;4992518;28;20198;-73
2021/07/22 00:58:01;;;;;;;13.93;8.20;;;18.60;79.00;;;;;;4987794;28;20243;-73
2021/07/22 01:00:26;;;;;;;12.90;8.20;;;18.60;79.90;;;;;;4991078;28;20692;-73
2021/07/22 01:02:52;;;;;;;15.10;7.63;;;18.50;80.30;;;;;;4996607;28;20184;-72
2021/07/22 01:05:18;;;;;;;14.60;7.87;;;18.40;80.80;;;;;;4989754;28;20604;-74
2021/07/22 01:07:44;;;;;;;14.90;8.47;;;18.30;81.10;;;;;;4995409;28;20630;-73
2021/07/22 01:10:10;;;;;;;13.43;7.87;;;18.10;80.90;;;;;;4988814;28;20533;-75
2021/07/22 01:12:36;;;;;;;16.87;8.90;;;18.10;81.40;;;;;;4995579;28;20182;-75
2021/07/22 01:15:02;;;;;;;13.83;8.33;;;18.10;81.20;;;;;;4988900;28;20762;-76
2021/07/22 01:17:40;;;;;;;14.47;8.53;;;18.10;80.90;;;;;;4992631;28;20277;-73
2021/07/22 01:20:23;;;;;;;16.27;8.90;;;18.10;80.80;;;;;;4992585;28;20506;-74
2021/07/22 01:22:51;;;;;;;12.40;8.27;;;18.10;80.90;;;;;;4987616;28;20430;-74
2021/07/22 01:25:19;;;;;;;16.03;7.70;;;18.10;81.50;;;;;;4991138;28;20441;-73
2021/07/22 01:27:45;;;;;;;12.33;7.63;;;18.10;81.40;;;;;;4991030;28;20524;-74
2021/07/22 01:30:11;;;;;;;13.30;7.53;;;18.10;81.50;;;;;;4993267;28;20459;-73
2021/07/22 01:32:37;;;;;;;14.50;7.50;;;18.20;81.50;;;;;;4988735;28;20424;-73
2021/07/22 01:35:04;;;;;;;16.47;8.50;;;18.20;81.40;;;;;;4991637;28;20437;-73
2021/07/22 01:37:30;;;;;;;13.90;8.57;;;18.30;81.20;;;;;;4986537;28;20427;-74
2021/07/22 01:39:56;;;;;;;15.33;9.33;;;18.20;80.90;;;;;;4990554;28;20485;-75
2021/07/22 01:42:21;;;;;;;12.70;8.43;;;18.10;81.10;;;;;;4995362;28;20184;-73
2021/07/22 01:44:47;;;;;;;12.07;7.47;;;18.10;81.50;;;;;;4995777;28;20187;-74
2021/07/22 01:47:13;;;;;;;15.00;8.03;;;18.10;81.90;;;;;;4989107;28;20244;-74
2021/07/22 01:49:38;;;;;;;14.67;8.03;;;18.10;81.90;;;;;;4996287;28;20179;-74
2021/07/22 01:52:05;;;;;;;15.27;8.90;;;18.00;82.50;;;;;;4986524;28;20177;-73
2021/07/22 01:54:31;;;;;;;16.03;8.10;;;18.00;82.70;;;;;;4994091;28;20555;-73
2021/07/22 01:56:58;;;;;;;14.30;7.67;;;17.90;82.70;;;;;;4985224;28;20557;-73
2021/07/22 01:59:24;;;;;;;14.37;8.80;;;18.00;82.50;;;;;;4992276;28;20425;-72
2021/07/22 02:01:50;;;;;;;16.97;8.23;;;17.90;82.50;;;;;;4988320;28;20437;-74
2021/07/22 02:04:16;;;;;;;14.33;7.63;;;17.80;82.80;;;;;;4992269;28;20418;-73
2021/07/22 02:06:42;;;;;;;15.73;8.30;;;17.80;82.80;;;;;;4993137;28;20615;-73
2021/07/22 02:09:07;;;;;;;14.73;8.93;;;17.80;83.10;;;;;;4991737;28;20186;-73
2021/07/22 02:11:33;;;;;;;14.00;7.77;;;17.80;83.40;;;;;;4991069;28;20282;-73
2021/07/22 02:13:59;;;;;;;14.73;8.60;;;17.80;83.70;;;;;;4992749;28;20239;-73
2021/07/22 02:16:24;;;;;;;15.17;8.60;;;17.80;83.60;;;;;;4985668;28;20286;-74
2021/07/22 02:18:50;;;;;;;12.73;8.40;;;17.80;83.40;;;;;;4987708;28;20187;-74
2021/07/22 02:21:16;;;;;;;19.57;9.00;;;17.70;83.00;;;;;;4992475;28;20182;-73
2021/07/22 02:23:42;;;;;;;14.43;8.50;;;17.70;82.80;;;;;;4990862;28;20191;-73
2021/07/22 02:26:09;;;;;;;12.20;8.20;;;17.70;83.00;;;;;;4987481;28;20509;-72
2021/07/22 02:28:35;;;;;;;13.93;7.67;;;17.60;83.60;;;;;;4992957;28;20665;-72
2021/07/22 02:31:02;;;;;;;14.80;7.87;;;17.60;83.60;;;;;;4982811;28;20538;-72
2021/07/22 02:33:28;;;;;;;14.50;8.50;;;17.60;83.80;;;;;;4990460;28;20429;-73
2021/07/22 02:35:57;;;;;;;14.70;8.47;;;17.60;83.70;;;;;;4980296;28;20454;-73
2021/07/22 02:38:23;;;;;;;15.37;8.27;;;17.60;83.80;;;;;;4988767;28;20920;-72
2021/07/22 02:40:48;;;;;;;15.50;8.40;;;17.50;83.80;;;;;;4990941;28;20425;-72
2021/07/22 02:43:14;;;;;;;17.37;8.27;;;17.50;83.80;;;;;;4987212;28;20202;-73
2021/07/22 02:45:40;;;;;;;16.77;9.20;;;17.50;84.10;;;;;;4983812;28;20273;-73
2021/07/22 02:48:06;;;;;;;15.03;9.30;;;17.40;84.10;;;;;;4987145;28;20215;-72
2021/07/22 02:50:33;;;;;;;15.13;8.17;;;17.50;84.30;;;;;;4989271;28;20425;-72
2021/07/22 02:53:02;;;;;;;17.00;8.80;;;17.50;84.30;;;;;;4984887;28;20500;-73
2021/07/22 02:55:28;;;;;;;14.80;8.27;;;17.40;84.70;;;;;;4991918;28;20437;-73
2021/07/22 02:57:54;;;;;;;17.70;8.77;;;17.40;85.00;;;;;;4992169;28;20884;-72
2021/07/22 03:00:20;;;;;;;13.40;9.10;;;17.40;85.00;;;;;;4987037;28;20820;-72
2021/07/22 03:02:45;;;;;;;15.70;8.80;;;17.40;84.90;;;;;;4997420;28;20217;-72
2021/07/22 03:05:11;;;;;;;15.47;8.47;;;17.30;85.20;;;;;;4996175;28;20183;-72
2021/07/22 03:07:37;;;;;;;16.30;8.93;;;17.30;85.00;;;;;;4999912;28;20289;-73
2021/07/22 03:10:03;;;;;;;13.67;8.20;;;17.40;85.20;;;;;;5007011;28;20423;-73
2021/07/22 03:12:29;;;;;;;15.77;8.67;;;17.40;85.00;;;;;;5005611;28;20178;-72
2021/07/22 03:14:55;;;;;;;15.33;8.20;;;17.30;84.60;;;;;;4997062;28;20410;-73
2021/07/22 03:17:21;;;;;;;15.67;9.00;;;17.20;84.90;;;;;;4999055;28;20982;-73
2021/07/22 03:19:47;;;;;;;17.07;9.63;;;17.10;85.60;;;;;;4996097;28;20183;-73
2021/07/22 03:22:14;;;;;;;15.00;7.97;;;17.10;86.00;;;;;;4995514;28;20968;-74
2021/07/22 03:24:40;;;;;;;13.17;9.00;;;17.10;86.00;;;;;;4989022;28;20570;-73
2021/07/22 03:27:06;;;;;;;17.27;8.73;;;17.10;86.00;;;;;;4988050;28;20552;-75
2021/07/22 03:29:32;;;;;;;14.13;8.00;;;17.10;86.00;;;;;;4992640;28;20185;-74
2021/07/22 03:31:59;;;;;;;14.60;8.67;;;17.00;86.20;;;;;;5001087;28;20181;-75
2021/07/22 03:34:25;;;;;;;19.43;10.53;;;17.00;86.30;;;;;;4998458;28;20480;-73
2021/07/22 03:36:50;;;;;;;16.90;9.40;;;17.00;86.50;;;;;;4981090;28;20444;-72
2021/07/22 03:39:16;;;;;;;16.37;8.70;;;17.00;86.50;;;;;;4983140;28;20214;-72
2021/07/22 03:41:51;;;;;;;14.63;8.70;;;17.00;86.80;;;;;;4989055;28;20204;-72
2021/07/22 03:44:16;;;;;;;11.43;8.27;;;17.00;86.80;;;;;;4982199;28;20237;-73
2021/07/22 03:46:43;;;;;;;12.70;7.77;;;16.90;86.60;;;;;;4986769;28;20469;-73
2021/07/22 03:49:08;;;;;;;15.30;8.90;;;16.90;86.50;;;;;;4988696;28;20644;-73
2021/07/22 03:51:34;;;;;;;13.00;8.23;;;16.90;86.50;;;;;;4987913;28;20463;-71
2021/07/22 03:54:00;;;;;;;17.57;8.67;;;17.00;86.60;;;;;;4989235;28;20190;-73
2021/07/22 03:56:26;;;;;;;15.47;8.47;;;17.00;86.50;;;;;;4988791;28;20215;-73
2021/07/22 03:58:55;;;;;;;18.23;7.80;;;17.00;86.20;;;;;;4984519;28;20179;-72
2021/07/22 04:01:20;;;;;;;17.50;9.03;;;17.10;85.90;;;;;;4985330;28;20191;-73
2021/07/22 04:03:46;;;;;;;14.80;8.23;;;17.00;86.00;;;;;;4987323;28;20496;-71
2021/07/22 04:06:12;;;;;;;16.13;9.00;;;17.00;86.20;;;;;;4988145;28;20203;-72
2021/07/22 04:08:39;;;;;;;13.10;7.97;;;17.00;85.70;;;;;;4986438;28;20179;-71
2021/07/22 04:11:06;;;;;;;14.07;8.70;;;17.00;85.60;;;;;;4989289;28;20179;-71
2021/07/22 04:13:32;;;;;;;17.20;8.60;;;17.00;85.60;;;;;;4991097;28;20410;-72
2021/07/22 04:16:02;;;;;;;15.47;8.53;;;16.90;85.90;;;;;;4991655;28;20956;-73
2021/07/22 04:18:28;;;;;;;16.83;8.70;;;16.90;86.30;;;;;;4986187;28;20501;-72
2021/07/22 04:20:54;;;;;;;17.30;8.47;;;16.90;86.60;;;;;;4987903;28;20422;-72
2021/07/22 04:23:20;;;;;;;18.03;10.10;;;16.90;86.80;;;;;;4990994;28;20489;-74
2021/07/22 04:25:46;;;;;;;12.73;8.87;;;17.00;86.50;;;;;;4988262;28;20214;-72
2021/07/22 04:28:12;;;;;;;16.80;9.00;;;17.10;86.50;;;;;;4988544;28;20477;-72
2021/07/22 04:30:38;;;;;;;19.37;9.23;;;17.10;86.30;;;;;;4986234;28;20185;-72
2021/07/22 04:33:05;;;;;;;17.50;8.50;;;17.10;86.50;;;;;;4990779;28;20197;-74
2021/07/22 04:35:31;;;;;;;14.73;8.80;;;17.00;86.90;;;;;;4987813;28;20477;-72
2021/07/22 04:37:57;;;;;;;17.23;9.37;;;17.00;87.00;;;;;;4984463;28;20464;-75
2021/07/22 04:40:23;;;;;;;14.97;9.43;;;17.10;86.80;;;;;;4983744;28;21547;-72
2021/07/22 04:42:48;;;;;;;17.40;8.83;;;17.10;86.80;;;;;;4986386;28;20229;-71
2021/07/22 04:45:14;;;;;;;18.37;9.80;;;17.10;86.80;;;;;;4983056;28;20186;-72
2021/07/22 04:47:40;;;;;;;17.13;8.47;;;17.20;86.80;;;;;;4990952;28;20578;-72
2021/07/22 04:50:07;;;;;;;17.53;9.97;;;17.20;86.80;;;;;;4990011;28;20894;-72
2021/07/22 04:52:32;;;;;;;15.80;9.03;;;17.30;86.60;;;;;;4984038;28;20432;-72
2021/07/22 04:54:58;;;;;;;17.40;8.70;;;17.40;86.20;;;;;;4989955;28;20422;-73
2021/07/22 04:57:24;;;;;;;15.37;8.30;;;17.40;86.00;;;;;;4982435;28;20226;-73
2021/07/22 04:59:50;;;;;;;16.87;9.33;;;17.50;85.90;;;;;;4981444;28;20199;-72
2021/07/22 05:02:15;;;;;;;21.80;9.03;;;17.60;85.00;;;;;;4987510;28;20285;-71
2021/07/22 05:04:42;;;;;;;17.73;8.80;;;17.70;84.10;;;;;;4989678;28;20274;-73
2021/07/22 05:07:07;;;;;;;15.60;8.70;;;17.80;84.00;;;;;;4988208;28;20473;-72
2021/07/22 05:09:33;;;;;;;15.00;8.37;;;17.90;84.30;;;;;;4985857;28;20424;-73
2021/07/22 05:11:59;;;;;;;15.97;9.80;;;17.90;84.40;;;;;;4986196;28;20670;-73
2021/07/22 05:14:25;;;;;;;15.73;8.40;;;18.00;84.30;;;;;;4986966;28;20528;-73
2021/07/22 05:16:50;;;;;;;20.37;8.77;;;18.10;83.00;;;;;;4983081;28;20217;-71
2021/07/22 05:19:16;;;;;;;21.10;10.03;;;18.10;82.70;;;;;;4990285;28;20647;-73
2021/07/22 05:21:42;;;;;;;16.30;10.23;;;18.20;83.10;;;;;;4989401;28;20190;-73
2021/07/22 05:24:08;;;;;;;17.53;9.80;;;18.20;83.30;;;;;;4987846;28;20189;-72
2021/07/22 05:26:36;;;;;;;16.83;10.50;;;18.30;83.40;;;;;;4990020;28;21014;-73
2021/07/22 05:29:02;;;;;;;17.70;10.00;;;18.30;83.80;;;;;;4992270;28;20222;-72
2021/07/22 05:31:28;;;;;;;22.47;12.07;;;18.40;84.00;;;;;;4984271;28;20452;-72
2021/07/22 05:33:53;;;;;;;22.00;11.90;;;18.50;83.40;;;;;;4987727;28;20216;-74
2021/07/22 05:36:19;;;;;;;21.73;11.63;;;18.50;82.50;;;;;;4982809;28;20208;-72
2021/07/22 05:38:45;;;;;;;24.37;11.10;;;18.50;82.40;;;;;;4990180;28;20191;-73
2021/07/22 05:41:11;;;;;;;23.90;11.33;;;18.50;81.90;;;;;;4990939;28;20679;-71
2021/07/22 05:43:37;;;;;;;20.37;11.40;;;18.40;82.10;;;;;;4989315;28;20203;-72
2021/07/22 05:46:03;;;;;;;22.77;11.50;;;18.40;82.20;;;;;;4990372;28;20482;-72
2021/07/22 05:48:28;;;;;;;24.00;10.93;;;18.50;82.10;;;;;;4989064;28;20200;-72
2021/07/22 05:50:58;;;;;;;20.43;10.40;;;18.50;81.80;;;;;;4990503;28;20406;-73
2021/07/22 05:53:24;;;;;;;25.47;12.00;;;18.60;81.40;;;;;;4992196;28;20185;-71
2021/07/22 05:55:49;;;;;;;23.43;12.00;;;18.60;81.70;;;;;;4988877;28;20437;-73
2021/07/22 05:58:15;;;;;;;25.77;13.30;;;18.60;81.70;;;;;;4993336;28;20598;-73
2021/07/22 06:00:42;;;;;;;25.37;12.20;;;18.50;81.80;;;;;;4991864;28;20219;-72
2021/07/22 06:03:08;;;;;;;21.10;11.23;;;18.60;82.10;;;;;;4981015;28;20420;-72
2021/07/22 06:05:34;;;;;;;25.43;11.90;;;18.70;81.80;;;;;;4992555;28;20722;-73
2021/07/22 06:08:04;;;;;;;19.60;12.10;;;18.70;81.80;;;;;;4991486;28;20213;-72
2021/07/22 06:10:30;;;;;;;25.57;12.57;;;18.80;81.80;;;;;;4985472;28;20427;-73
2021/07/22 06:12:56;;;;;;;24.60;12.57;;;18.80;81.80;;;;;;4992659;28;20446;-76
2021/07/22 06:15:23;;;;;;;27.27;13.60;;;18.90;81.70;;;;;;4985222;28;20442;-74
2021/07/22 06:17:49;;;;;;;20.40;12.00;;;19.00;81.20;;;;;;4986524;28;20454;-72
2021/07/22 06:20:15;;;;;;;23.97;12.67;;;19.00;81.10;;;;;;4990293;28;20969;-72
2021/07/22 06:22:44;;;;;;;25.53;12.47;;;19.10;80.90;;;;;;4989082;28;20658;-73
2021/07/22 06:25:11;;;;;;;23.27;12.27;;;19.20;80.90;;;;;;4993165;28;20512;-72
2021/07/22 06:27:36;;;;;;;22.70;13.03;;;19.30;80.00;;;;;;4987745;28;20477;-74
2021/07/22 06:30:03;;;;;;;24.30;13.20;;;19.40;79.30;;;;;;4993371;28;21117;-73
2021/07/22 06:32:29;;;;;;;24.63;12.13;;;19.50;79.20;;;;;;4995651;28;20188;-73
2021/07/22 06:34:55;;;;;;;20.30;11.60;;;19.50;78.60;;;;;;4993991;28;20441;-73
2021/07/22 06:37:20;;;;;;;22.33;12.63;;;19.60;78.10;;;;;;4989983;28;20235;-73
2021/07/22 06:39:46;;;;;;;25.47;12.93;;;19.70;77.70;;;;;;4992559;28;20216;-73
2021/07/22 06:42:12;;;;;;;22.77;12.30;;;19.80;76.80;;;;;;4988731;28;20551;-73
2021/07/22 06:44:37;;;;;;;17.90;11.97;;;19.80;76.70;;;;;;4984816;28;20550;-74
2021/07/22 06:47:03;;;;;;;22.60;12.83;;;19.80;76.70;;;;;;4990087;28;20252;-73
2021/07/22 06:49:29;;;;;;;26.83;13.37;;;19.90;76.50;;;;;;4991922;28;20267;-75
2021/07/22 06:51:55;;;;;;;24.20;11.73;;;20.10;75.70;;;;;;4992166;28;20517;-76
2021/07/22 06:54:21;;;;;;;26.00;12.20;;;20.20;75.10;;;;;;4991542;28;20198;-74
2021/07/22 06:56:47;;;;;;;23.77;11.30;;;20.30;75.40;;;;;;4986833;28;20226;-75
2021/07/22 06:59:13;;;;;;;18.67;11.37;;;20.30;75.10;;;;;;4987804;28;20430;-75
2021/07/22 07:01:39;;;;;;;22.00;11.90;;;20.40;74.90;;;;;;4986239;28;20527;-75
2021/07/22 07:04:06;;;;;;;23.07;12.83;;;20.50;74.30;;;;;;4991938;28;20529;-74
2021/07/22 07:06:36;;;;;;;26.57;13.90;;;20.70;73.50;;;;;;4984319;28;20262;-75
2021/07/22 07:09:05;;;;;;;23.40;12.70;;;20.70;73.30;;;;;;4988459;28;20434;-75
2021/07/22 07:11:30;;;;;;;20.97;12.00;;;20.70;72.90;;;;;;4987687;28;20457;-74
2021/07/22 07:13:56;;;;;;;22.97;11.70;;;20.80;73.00;;;;;;4999420;28;20431;-75
2021/07/22 07:16:22;;;;;;;24.93;12.40;;;20.80;72.90;;;;;;4983332;28;20205;-74
2021/07/22 07:18:48;;;;;;;28.73;13.10;;;20.80;72.30;;;;;;4985856;28;20220;-75
2021/07/22 07:21:13;;;;;;;25.20;14.13;;;20.80;71.80;;;;;;4987701;28;20657;-74
2021/07/22 07:23:39;;;;;;;24.17;13.63;;;20.70;72.10;;;;;;4984120;28;20201;-74
2021/07/22 07:26:11;;;;;;;24.10;12.60;;;20.80;72.60;;;;;;4984252;28;20448;-75
2021/07/22 07:28:38;;;;;;;22.83;13.00;;;20.80;72.40;;;;;;4993925;28;20193;-75
2021/07/22 07:31:04;;;;;;;26.23;13.67;;;20.90;71.80;;;;;;4985955;28;20455;-75
2021/07/22 07:33:30;;;;;;;26.60;12.97;;;21.00;71.30;;;;;;4990941;28;20429;-75
2021/07/22 07:35:56;;;;;;;22.37;13.23;;;20.90;71.60;;;;;;4984778;28;20447;-74
2021/07/22 07:38:22;;;;;;;34.03;13.90;;;20.90;71.70;;;;;;4988188;28;20282;-75
2021/07/22 07:40:48;;;;;;;31.17;13.10;;;21.00;72.30;;;;;;4990969;28;20430;-75
2021/07/22 07:43:20;;;;;;;34.90;13.40;;;20.90;72.40;;;;;;4990855;28;20956;-73
2021/07/22 07:45:46;;;;;;;21.27;12.93;;;20.90;72.60;;;;;;4985903;28;20443;-75
2021/07/22 07:48:12;;;;;;;25.60;14.03;;;20.90;72.30;;;;;;4995986;28;20482;-76
2021/07/22 07:50:38;;;;;;;23.40;13.30;;;20.90;71.40;;;;;;4981811;28;20465;-74
2021/07/22 07:53:11;;;;;;;24.47;12.50;;;20.90;71.70;;;;;;4989543;28;20215;-73
2021/07/22 07:55:38;;;;;;;25.10;13.50;;;20.90;71.60;;;;;;4987612;28;20445;-73
2021/07/22 07:58:03;;;;;;;18.40;11.00;;;21.00;70.50;;;;;;4989617;28;20946;-75
2021/07/22 08:00:29;;;;;;;21.10;12.70;;;21.10;70.20;;;;;;5000657;28;20432;-75
2021/07/22 08:02:58;;;;;;;30.70;11.90;;;21.10;68.80;;;;;;4981325;28;20219;-75
2021/07/22 08:05:27;;;;;;;20.53;12.17;;;21.20;68.90;;;;;;4984393;28;20215;-75
2021/07/22 08:07:54;;;;;;;19.13;10.67;;;21.20;67.70;;;;;;4987569;28;20999;-75
2021/07/22 08:10:20;;;;;;;20.87;11.30;;;21.30;68.20;;;;;;4982516;28;20477;-75
2021/07/22 08:12:46;;;;;;;21.40;11.10;;;21.40;69.10;;;;;;4990046;28;20430;-76
2021/07/22 08:15:12;;;;;;;18.97;11.97;;;21.60;69.10;;;;;;4983128;28;20432;-74
2021/07/22 08:17:38;;;;;;;22.80;12.83;;;21.70;67.90;;;;;;4988524;28;20187;-74
2021/07/22 08:20:06;;;;;;;22.80;11.27;;;21.70;67.50;;;;;;4985874;28;20944;-72
2021/07/22 08:22:35;;;;;;;18.57;11.43;;;21.70;68.00;;;;;;4987645;28;20781;-74
2021/07/22 08:25:02;;;;;;;20.00;11.30;;;21.80;68.20;;;;;;4984631;28;20486;-73
2021/07/22 08:27:29;;;;;;;23.37;11.10;;;21.90;67.60;;;;;;4990567;28;20511;-72
2021/07/22 08:29:56;;;;;;;18.30;9.93;;;21.90;66.60;;;;;;4996975;28;20420;-76
2021/07/22 08:32:23;;;;;;;13.00;9.67;;;21.90;66.70;;;;;;4991776;28;20537;-74
2021/07/22 08:34:49;;;;;;;21.40;10.10;;;21.90;65.80;;;;;;4992381;28;20531;-75
2021/07/22 08:37:15;;;;;;;20.30;10.13;;;22.00;65.80;;;;;;4987613;28;20454;-74
2021/07/22 08:39:42;;;;;;;17.47;10.40;;;22.20;65.00;;;;;;4983428;28;20188;-78
2021/07/22 08:42:09;;;;;;;19.60;9.80;;;22.20;65.80;;;;;;4992567;28;20916;-80
2021/07/22 08:44:39;;;;;;;16.30;10.03;;;22.20;66.10;;;;;;4991321;28;20437;-79
2021/07/22 08:47:07;;;;;;;15.23;9.03;;;22.20;65.30;;;;;;4989391;28;20503;-78
2021/07/22 08:49:33;;;;;;;16.30;9.50;;;22.40;65.00;;;;;;4992274;28;20914;-77
2021/07/22 08:52:00;;;;;;;15.40;9.47;;;22.50;65.70;;;;;;4990278;28;20478;-80
2021/07/22 08:54:26;;;;;;;15.70;8.73;;;22.60;65.40;;;;;;4991744;28;20427;-80
2021/07/22 08:56:56;;;;;;;20.47;10.40;;;22.80;64.50;;;;;;4993520;28;20468;-79
2021/07/22 08:59:25;;;;;;;18.67;10.33;;;22.90;63.80;;;;;;4992310;28;20436;-79
2021/07/22 09:01:55;;;;;;;17.57;8.50;;;22.80;64.70;;;;;;4991807;28;20441;-77
2021/07/22 09:04:21;;;;;;;15.07;8.63;;;23.00;62.80;;;;;;4980233;28;20445;-79
2021/07/22 09:06:46;;;;;;;14.27;9.10;;;23.10;62.80;;;;;;4989892;28;20882;-79
2021/07/22 09:09:13;;;;;;;17.23;9.63;;;23.10;62.20;;;;;;4991676;28;20193;-80
2021/07/22 09:12:01;;;;;;;17.30;9.80;;;23.30;62.20;;;;;;4994803;28;20190;-80
2021/07/22 09:14:30;;;;;;;16.57;9.20;;;23.40;62.90;;;;;;4996815;28;20920;-76
2021/07/22 09:16:56;;;;;;;16.03;10.47;;;23.50;62.60;;;;;;4996299;28;20466;-77
2021/07/22 09:19:39;;;;;;;18.67;9.63;;;23.60;62.60;;;;;;4997010;28;20469;-78
2021/07/22 09:22:07;;;;;;;13.70;8.90;;;23.60;62.90;;;;;;5000969;28;20424;-79
2021/07/22 09:24:50;;;;;;;18.33;9.43;;;23.70;60.30;;;;;;4991546;28;20992;-78
2021/07/22 09:27:41;;;;;;;16.77;9.30;;;23.80;59.50;;;;;;4997039;28;20479;-78
2021/07/22 09:30:18;;;;;;;14.97;8.97;;;23.90;58.40;;;;;;4995537;28;20440;-78
2021/07/22 09:32:47;;;;;;;13.63;8.17;;;24.00;58.00;;;;;;4997687;28;20423;-77
2021/07/22 09:35:19;;;;;;;14.73;9.60;;;24.10;56.80;;;;;;4998954;28;20424;-79
2021/07/22 09:37:46;;;;;;;11.53;8.10;;;24.10;56.10;;;;;;4989801;28;20424;-76
2021/07/22 09:40:36;;;;;;;17.10;10.00;;;24.10;55.60;;;;;;4994756;28;20458;-79
2021/07/22 09:43:02;;;;;;;13.93;8.27;;;24.00;56.20;;;;;;4993995;28;20440;-76
2021/07/22 09:45:30;;;;;;;15.00;8.67;;;24.10;56.10;;;;;;4988443;28;20458;-82
2021/07/22 09:48:06;;;;;;;14.23;8.73;;;24.10;56.80;;;;;;4998095;28;20489;-81
2021/07/22 09:50:42;;;;;;;9.80;7.20;;;24.30;56.00;;;;;;4991849;28;20451;-80
2021/07/22 09:53:12;;;;;;;12.43;8.37;;;24.30;53.60;;;;;;4998642;28;20482;-80
2021/07/22 09:55:40;;;;;;;15.03;10.37;;;24.30;54.50;;;;;;4996825;28;20460;-80
2021/07/22 09:58:08;;;;;;;12.30;8.10;;;24.40;54.90;;;;;;4989981;28;20453;-77
2021/07/22 10:00:35;;;;;;;15.90;8.40;;;24.40;55.20;;;;;;4996507;28;20523;-80
2021/07/22 10:03:08;;;;;;;12.43;8.10;;;24.50;54.90;;;;;;4998634;28;20436;-82
2021/07/22 10:05:43;;;;;;;12.87;8.50;;;24.70;54.90;;;;;;4999147;28;20460;-80
2021/07/22 10:08:09;;;;;;;11.90;8.13;;;24.90;55.20;;;;;;4991543;28;20804;-79
2021/07/22 10:10:37;;;;;;;15.77;8.97;;;25.10;55.30;;;;;;4997654;28;20417;-79
2021/07/22 10:13:03;;;;;;;15.70;9.30;;;25.20;54.80;;;;;;4995402;28;20426;-79
2021/07/22 10:15:35;;;;;;;14.40;8.50;;;25.60;54.40;;;;;;4995762;28;20455;-77
2021/07/22 10:18:01;;;;;;;12.23;8.20;;;26.10;54.40;;;;;;4992987;28;20545;-77
2021/07/22 10:20:29;;;;;;;13.17;8.73;;;26.50;52.10;;;;;;4995312;28;20461;-81
2021/07/22 10:22:56;;;;;;;12.60;8.40;;;26.80;52.50;;;;;;4996841;28;20556;-81
2021/07/22 10:25:22;;;;;;;12.30;9.17;;;27.30;50.30;;;;;;4997863;28;20425;-81
2021/07/22 10:27:49;;;;;;;14.33;9.30;;;27.40;49.70;;;;;;4995536;28;20468;-75
2021/07/22 10:30:17;;;;;;;14.90;8.60;;;27.50;50.30;;;;;;4995344;28;20428;-78
2021/07/22 10:32:49;;;;;;;13.07;8.10;;;27.60;49.90;;;;;;4999493;28;20420;-78
2021/07/22 10:35:19;;;;;;;14.27;9.40;;;27.70;48.90;;;;;;4998101;28;20501;-79
2021/07/22 10:38:05;;;;;;;14.07;8.90;;;27.40;50.20;;;;;;4992825;28;20430;-71
2021/07/22 10:40:46;;;;;;;15.73;9.23;;;27.60;49.40;;;;;;4986677;28;20834;-72
2021/07/22 10:46:07;;;;;;;11.43;8.00;;;27.10;49.80;;;;;;4989247;28;20456;-71
2021/07/22 10:48:33;;;;;;;13.50;8.73;;;27.10;49.90;;;;;;4984787;28;20473;-71
2021/07/22 10:51:00;;;;;;;14.73;8.83;;;27.20;49.70;;;;;;4987499;28;20812;-81
2021/07/22 10:53:44;;;;;;;14.53;9.20;;;27.20;50.10;;;;;;4997488;28;20484;-80
2021/07/22 10:56:14;;;;;;;13.20;8.10;;;27.40;49.90;;;;;;4992393;28;20554;-78
2021/07/22 10:58:40;;;;;;;17.30;9.77;;;27.40;49.90;;;;;;4988530;28;20867;-82
2021/07/22 11:01:07;;;;;;;11.63;8.37;;;27.10;50.30;;;;;;4993476;28;20508;-70
2021/07/22 11:03:35;;;;;;;12.73;8.87;;;27.30;51.00;;;;;;4991796;28;20186;-71
2021/07/22 11:06:11;;;;;;;12.40;8.90;;;27.80;49.50;;;;;;4991049;28;20454;-73
2021/07/22 11:08:41;;;;;;;12.83;8.07;;;27.80;49.00;;;;;;4992439;28;20479;-74
2021/07/22 11:11:08;;;;;;;16.77;9.37;;;27.50;49.70;;;;;;4990296;28;20853;-73
2021/07/22 11:13:37;;;;;;;16.20;8.57;;;27.60;49.40;;;;;;4991859;28;20424;-73
2021/07/22 11:16:07;;;;;;;13.10;9.90;;;27.90;48.70;;;;;;4989104;28;21036;-72
2021/07/22 11:18:39;;;;;;;13.90;8.93;;;28.00;48.90;;;;;;4986142;28;20481;-72
2021/07/22 11:21:07;;;;;;;14.50;8.73;;;28.10;48.50;;;;;;4990986;28;21006;-73
2021/07/22 11:23:33;;;;;;;14.97;8.80;;;28.30;48.10;;;;;;4984215;28;21237;-73
2021/07/22 11:25:59;;;;;;;13.10;8.70;;;28.60;48.10;;;;;;4984586;28;20443;-73
2021/07/22 11:28:26;;;;;;;17.77;10.10;;;28.90;47.00;;;;;;4991954;28;20874;-72
2021/07/22 11:31:07;;;;;;;16.80;8.50;;;28.60;46.90;;;;;;4986146;28;20427;-73
2021/07/22 11:33:39;;;;;;;16.40;9.00;;;28.50;47.50;;;;;;4985086;28;20807;-73
2021/07/22 11:36:12;;;;;;;15.83;9.80;;;28.30;47.70;;;;;;4983620;28;20485;-73
2021/07/22 11:38:39;;;;;;;13.17;8.93;;;28.40;47.40;;;;;;4986841;28;20434;-73
2021/07/22 11:41:14;;;;;;;19.20;10.03;;;28.40;47.90;;;;;;4986479;28;20609;-73
2021/07/22 11:43:45;;;;;;;17.60;9.60;;;28.70;47.00;;;;;;4982794;28;20435;-72
2021/07/22 11:46:16;;;;;;;15.27;9.20;;;28.80;46.60;;;;;;4986707;28;20990;-73
2021/07/22 11:48:43;;;;;;;15.23;9.33;;;28.90;46.90;;;;;;4985708;28;20473;-73
2021/07/22 11:51:14;;;;;;;19.60;10.47;;;28.90;46.50;;;;;;4987311;28;20927;-72
2021/07/22 11:53:41;;;;;;;12.50;9.30;;;28.80;46.60;;;;;;4979398;28;20866;-72
2021/07/22 11:56:15;;;;;;;13.07;8.93;;;28.60;47.30;;;;;;4983661;28;20446;-72
2021/07/22 11:58:51;;;;;;;18.30;9.47;;;28.60;47.10;;;;;;4979943;28;20434;-73
2021/07/22 12:01:17;;;;;;;14.30;8.33;;;28.80;47.00;;;;;;4982193;28;20433;-73
2021/07/22 12:03:47;;;;;;;13.37;9.23;;;29.00;46.60;;;;;;4987957;28;20426;-72
2021/07/22 12:06:21;;;;;;;16.73;9.87;;;29.10;46.30;;;;;;4978759;28;20450;-72
2021/07/22 12:08:59;;;;;;;17.87;9.77;;;29.40;46.50;;;;;;4983142;28;20549;-72
2021/07/22 12:11:24;;;;;;;16.53;8.60;;;29.40;45.40;;;;;;4987545;28;20438;-72
2021/07/22 12:13:52;;;;;;;16.80;10.47;;;29.00;45.90;;;;;;4983962;28;20425;-71
2021/07/22 12:16:24;;;;;;;15.57;9.77;;;28.70;46.90;;;;;;4979277;28;20212;-72
2021/07/22 12:18:54;;;;;;;16.70;10.40;;;28.80;46.70;;;;;;4980251;28;20464;-70
2021/07/22 12:21:24;;;;;;;14.50;9.70;;;29.00;46.30;;;;;;4985418;28;20846;-71
2021/07/22 12:23:50;;;;;;;14.30;9.77;;;29.20;46.10;;;;;;4988258;28;20480;-71
2021/07/22 12:26:17;;;;;;;13.10;9.03;;;28.90;45.90;;;;;;4982893;28;20496;-72
2021/07/22 12:28:45;;;;;;;17.33;9.53;;;28.70;46.10;;;;;;4980450;28;20564;-72
2021/07/22 12:31:21;;;;;;;18.00;10.27;;;28.40;46.70;;;;;;4980025;28;20519;-72
2021/07/22 12:34:01;;;;;;;12.47;9.33;;;28.30;47.30;;;;;;4985762;28;20991;-73
2021/07/22 12:36:30;;;;;;;16.87;10.40;;;28.60;47.40;;;;;;4981171;28;21245;-72
2021/07/22 12:39:17;;;;;;;19.30;11.27;;;29.00;46.10;;;;;;4983720;28;20419;-71